Time;durP1;ratioP1;P1;durP2;ratioP2;P2;SDS_P1;SDS_P2;PMS_P1;PMS_P2;Temp;Humidity;BMP_temperature;BMP_pressure;BME280_temperature;BME280_humidity;BME280_pressure;Samples;Min_cycle;Max_cycle;Signal;HPM_P1;HPM_P2
2023/07/16 09:48:48;;;;;;;;;;;15.70;89.50;;;;;;6245044;23;19927;-72
2023/07/16 09:51:15;;;;;;;;;;;15.70;89.50;;;;;;6218130;23;20251;-72
2023/07/16 09:53:42;;;;;;;;;;;15.70;89.60;;;;;;6244229;23;20323;-72
2023/07/16 09:56:09;;;;;;;;;;;15.70;89.50;;;;;;6244864;23;19904;-72
2023/07/16 09:58:36;;;;;;;;;;;15.70;89.50;;;;;;6218188;23;19942;-74
2023/07/16 10:01:02;;;;;;;;;;;15.70;89.50;;;;;;6217498;23;20338;-73
2023/07/16 10:03:29;;;;;;;;;;;15.70;89.50;;;;;;6217225;23;20220;-71
2023/07/16 10:06:05;;;;;;;;;;;15.70;89.60;;;;;;6244287;23;19910;-72
2023/07/16 10:08:36;;;;;;;;;;;15.70;89.60;;;;;;6217942;23;19907;-72
2023/07/16 10:11:03;;;;;;;;;;;15.70;89.60;;;;;;6244315;22;19942;-72
2023/07/16 10:13:30;;;;;;;;;;;15.70;89.60;;;;;;6244179;23;19903;-71
2023/07/16 10:16:00;;;;;;;;;;;15.60;89.60;;;;;;6244152;23;20010;-72
2023/07/16 10:18:30;;;;;;;;;;;15.60;89.60;;;;;;6244061;23;19911;-72
2023/07/16 10:21:07;;;;;;;;;;;15.60;89.60;;;;;;6244764;22;19911;-72
2023/07/16 10:23:40;;;;;;;;;;;15.60;89.60;;;;;;6245208;23;20259;-72
2023/07/16 10:26:07;;;;;;;;;;;15.60;89.70;;;;;;6245454;23;20342;-72
2023/07/16 10:28:34;;;;;;;;;;;15.60;89.70;;;;;;6245402;23;19915;-72
2023/07/16 10:31:01;;;;;;;;;;;15.60;89.70;;;;;;6244413;22;19911;-72
2023/07/16 10:33:27;;;;;;;;;;;15.60;89.80;;;;;;6244653;23;20397;-72
2023/07/16 10:35:56;;;;;;;;;;;15.60;89.70;;;;;;6243483;23;19912;-72
2023/07/16 10:38:23;;;;;;;;;;;15.60;89.80;;;;;;6243738;23;19903;-72
2023/07/16 10:40:49;;;;;;;;;;;15.60;89.80;;;;;;6244488;22;20271;-72
2023/07/16 10:43:16;;;;;;;;;;;15.60;89.90;;;;;;6240835;23;19966;-71
2023/07/16 10:45:46;;;;;;;;;;;15.60;89.90;;;;;;6216857;23;19911;-71
2023/07/16 10:48:13;;;;;;;;;;;15.60;89.90;;;;;;6266958;22;19922;-72
2023/07/16 10:50:40;;;;;;;;;;;15.60;89.90;;;;;;6263074;22;19977;-72
2023/07/16 10:53:06;;;;;;;;;;;15.60;89.90;;;;;;6274850;22;19907;-72
2023/07/16 10:55:37;;;;;;;;;;;15.60;89.90;;;;;;6269902;22;19919;-72
2023/07/16 10:58:05;;;;;;;;;;;15.50;89.90;;;;;;6269917;22;20338;-72
2023/07/16 11:00:32;;;;;;;;;;;15.50;89.90;;;;;;6272300;22;19915;-72
2023/07/16 11:02:59;;;;;;;;;;;15.50;89.90;;;;;;6245566;22;19915;-72
2023/07/16 11:05:26;;;;;;;;;;;15.50;89.90;;;;;;6271416;22;19973;-72
2023/07/16 11:07:52;;;;;;;;;;;15.50;89.90;;;;;;6272567;22;19978;-72
2023/07/16 11:10:19;;;;;;;;;;;15.50;90.00;;;;;;6274822;22;19914;-72
2023/07/16 11:12:49;;;;;;;;;;;15.50;90.00;;;;;;6274278;22;20378;-72
2023/07/16 11:15:16;;;;;;;;;;;15.40;90.00;;;;;;6247306;22;19986;-72
2023/07/16 11:17:42;;;;;;;;;;;15.50;90.10;;;;;;6275032;22;19945;-72
2023/07/16 11:20:10;;;;;;;;;;;15.40;90.10;;;;;;6271267;22;19934;-72
2023/07/16 11:22:40;;;;;;;;;;;15.50;90.20;;;;;;6248388;22;19914;-72
2023/07/16 11:25:13;;;;;;;;;;;15.50;90.20;;;;;;6274883;22;20323;-72
2023/07/16 11:27:41;;;;;;;;;;;15.40;90.30;;;;;;6245881;22;19911;-72
2023/07/16 11:30:08;;;;;;;;;;;15.40;90.20;;;;;;6274452;22;19957;-72
2023/07/16 11:32:35;;;;;;;;;;;15.40;90.30;;;;;;6273888;22;19962;-71
2023/07/16 11:35:02;;;;;;;;;;;15.40;90.20;;;;;;6276056;22;20389;-72
2023/07/16 11:37:29;;;;;;;;;;;15.40;90.30;;;;;;6249913;22;19903;-72
2023/07/16 11:39:57;;;;;;;;;;;15.40;90.30;;;;;;6250346;22;19930;-71
